81.5°F
Current conditions from King Hill
Updated every 5 minutes
 
  Wednesday September 2, 2015

Observations for Westford

Westford

44° 37' 39"N, 73° 02' 29"W, Elevation 850 ft.
Eastern Time

Hourly observations for the last 72 hours

Date Time Temperature (F) Humi-
dity

(%)
Wind
(mph)
Pressure Rain (in)
Air Dew 6 Hour 1 Hr 3 Hr 6 Hr Day
Alt
(in)
Sea
Level

(mb)
Max Min
28 16:00 73.6 59.8 62 WNW 0 G 1 30.08 1018.7 0.00
28 15:00 74.8 60.5 61 W 0 G 6 30.09 1019.1 0.00
28 14:00 72.2 59.8 72.4 58.7 65 WNW 1 G 8 30.11 1019.6 0.00
28 13:00 70.5 59.0 67 WNW 1 G 7 30.12 1020.0 0.00
28 12:00 69.4 58.4 68 W 0 G 5 30.14 1020.6 0.00
28 11:00 66.9 57.2 71 WNW 1 G 8 30.14 1020.7 0.00
28 10:00 65.4 58.7 79 Calm 30.14 1020.5 0.00
28 09:00 60.0 57.7 92 Calm 30.13 1020.4 0.00
28 08:00 58.7 58.1 58.7 51.6 98 Calm 30.12 1020.0 0.00
28 07:00 53.4 52.8 98 Calm 30.11 1019.6 0.00
28 06:00 52.1 51.3 97 Calm 30.09 1019.2 0.00
28 05:00 52.6 51.8 97 Calm 30.08 1018.8 0.00
28 04:00 53.8 52.7 96 Calm 30.08 1018.7 0.00
28 03:00 54.5 53.4 96 Calm 30.07 1018.5 0.00
28 02:00 56.3 54.6 58.6 54.8 94 WNW 0 G 4 30.07 1018.2 0.00
28 01:00 58.4 56.1 92 NW 1 G 7 30.07 1018.2 0.00
28 00:00 57.5 55.2 92 W 0 G 6 30.05 1017.7 0.02
27 23:00 56.0 54.9 96 W 0 G 1 30.05 1017.6 0.02
27 22:00 54.9 53.5 95 Calm 30.05 1017.5 0.02
27 21:00 55.7 54.0 94 Calm 30.03 1016.8 0.02
27 20:00 57.4 54.8 70.7 57.4 91 Calm 30.01 1016.2 0.02
27 19:00 64.9 58.9 81 Calm 29.99 1015.5 0.02
27 18:00 66.1 59.0 78 Calm 29.98 1015.1 0.02
27 17:00 67.0 56.5 69 WNW 0 G 8 29.97 1015.0 0.02
27 16:00 67.5 57.4 70 NNW 0 G 8 29.97 1014.9 0.02
27 15:00 67.1 56.2 68 W 1 G 6 29.98 1015.3 0.02
27 14:00 66.6 57.3 68.3 59.3 72 WNW 0 G 9 29.98 1015.1 0.02 0.02
27 13:00 66.6 55.3 67 WNW 7 G 11 29.97 1014.9 0.02
27 12:00 66.3 56.2 70 WNW 4 G 11 29.98 1015.2 0.02
27 11:00 62.3 59.0 89 NW 2 G 10 29.98 1015.2 0.02 0.02
27 10:00 59.3 57.3 93 NW 2 G 8 29.97 1015.0 0.02 0.02
27 09:00 62.6 58.4 86 W 6 G 10 29.96 1014.5 0.00
27 08:00 60.1 57.8 60.1 54.6 92 SW 0 G 5 29.95 1014.2 0.00
27 07:00 57.3 56.5 97 S 1 G 5 29.94 1013.9 0.00
27 06:00 56.1 55.0 96 Calm 29.92 1013.2 0.00
27 05:00 56.9 55.8 96 Calm 29.91 1012.8 0.00
27 04:00 55.9 54.8 96 Calm 29.91 1012.7 0.00
27 03:00 55.6 53.3 92 Calm 29.91 1012.8 0.00
27 02:00 57.5 54.3 62.0 57.5 89 W 1 G 6 29.92 1013.2 0.00
27 01:00 59.8 55.9 87 Calm 29.92 1013.3 0.00
27 00:00 59.8 55.9 87 Calm 29.93 1013.4 0.00
26 23:00 58.8 54.9 87 WSW 0 G 2 29.92 1013.3 0.00
26 22:00 60.3 56.1 86 WSW 0 G 4 29.92 1013.1 0.00
26 21:00 60.3 58.3 93 Calm 29.90 1012.6 0.00
26 20:00 62.0 58.7 74.0 62.0 89 Calm 29.89 1012.2 0.00
26 19:00 65.1 60.5 85 Calm 29.88 1011.9 0.00
26 18:00 66.7 60.0 79 Calm 29.87 1011.7 0.00
26 17:00 69.8 59.6 70 WNW 2 G 7 29.87 1011.6 0.00
26 16:00 71.9 57.7 61 WNW 0 G 1 29.87 1011.6 0.00
26 15:00 72.4 57.7 60 WNW 3 G 8 29.88 1012.0 0.00
26 14:00 73.5 60.6 73.7 62.4 64 NW 0 G 1 29.89 1012.1 0.00
26 13:00 72.0 58.3 62 WNW 3 G 9 29.89 1012.4 0.00
26 12:00 71.7 58.9 64 WNW 4 G 7 29.91 1012.9 0.00
26 11:00 69.2 57.8 67 WSW 2 G 11 29.91 1013.0 0.00
26 10:00 66.5 58.7 76 Calm 29.91 1012.9 0.00
26 09:00 66.3 58.1 75 Calm 29.90 1012.7 0.00
26 08:00 62.4 60.4 62.4 55.3 93 Calm 29.90 1012.5 0.00
26 07:00 55.8 54.7 96 Calm 29.89 1012.2 0.00
26 06:00 55.7 54.3 95 Calm 29.88 1012.0 0.00
26 05:00 56.0 54.3 94 Calm 29.87 1011.7 0.00
26 04:00 57.0 54.1 90 Calm 29.87 1011.4 0.00
26 03:00 58.2 55.0 89 Calm 29.86 1011.2 0.00
26 02:00 59.6 58.2 65.0 59.3 95 Calm 29.86 1011.3 0.00
26 01:00 60.6 58.9 94 Calm 29.86 1011.3 0.00
26 00:00 61.0 58.7 92 Calm 29.87 1011.4 0.00
25 23:00 61.3 58.0 89 Calm 29.86 1011.3 0.00
25 22:00 61.0 57.4 88 Calm 29.85 1010.9 0.00
25 21:00 62.2 58.6 88 N 0 G 2 29.84 1010.6 0.00
25 20:00 65.0 60.1 78.2 65.0 84 NW 0 G 12 29.81 1009.3 0.00
25 19:00 71.4 66.0 83 WNW 1 G 6 29.77 1008.2 0.00
25 18:00 76.7 66.6 71 WNW 0 G 7 29.76 1007.8 0.00
25 17:00 75.8 65.7 71 WSW 0 G 1 29.76 1007.9 0.00

Data generated by WxSolution Version 1.8.7.6, Build 2015.07.19.


 
 
Current Radar Loop:

Copyright © WestfordWeather.net 2007-2015. All rights reserved.